Time;durP1;ratioP1;P1;durP2;ratioP2;P2;SDS_P1;SDS_P2;PMS_P1;PMS_P2;Temp;Humidity;BMP_temperature;BMP_pressure;BME280_temperature;BME280_humidity;BME280_pressure;Samples;Min_cycle;Max_cycle;Signal;HPM_P1;HPM_P2
2023/11/17 00:02:28;;;;;;;29.50;18.20;;;;;;;4.26;84.64;99592.77;102640;1253;1003049;-77
2023/11/17 00:04:55;;;;;;;30.70;18.10;;;;;;;4.27;84.69;99594.30;103460;1256;108222;-78
2023/11/17 00:07:22;;;;;;;28.40;18.30;;;;;;;4.31;84.51;99590.96;103347;1256;138909;-78
2023/11/17 00:09:49;;;;;;;28.80;18.50;;;;;;;4.31;84.56;99593.71;103445;1254;110459;-76
2023/11/17 00:12:16;;;;;;;32.00;19.40;;;;;;;4.33;84.29;99588.88;103454;1254;107443;-77
2023/11/17 00:14:43;;;;;;;30.60;19.10;;;;;;;4.33;84.37;99592.85;102659;1253;1003401;-76
2023/11/17 00:17:10;;;;;;;29.60;19.60;;;;;;;4.30;83.92;99593.73;103471;1253;107704;-77
2023/11/17 00:19:37;;;;;;;31.50;18.80;;;;;;;4.26;83.89;99590.52;101827;1257;1003513;-76
2023/11/17 00:22:04;;;;;;;27.30;18.00;;;;;;;4.21;83.82;99586.99;103512;1253;109880;-77
2023/11/17 00:24:31;;;;;;;28.20;18.30;;;;;;;4.18;83.77;99586.53;103738;1253;106068;-78
2023/11/17 00:26:59;;;;;;;30.80;17.80;;;;;;;4.15;83.61;99586.94;103369;1252;138381;-78
2023/11/17 00:29:26;;;;;;;30.50;18.00;;;;;;;4.15;83.54;99581.95;103436;1256;108407;-78
2023/11/17 00:31:55;;;;;;;30.50;18.70;;;;;;;4.12;83.47;99587.14;103371;1253;138918;-78
2023/11/17 00:34:22;;;;;;;31.00;18.40;;;;;;;4.11;83.72;99584.40;103528;1256;110754;-78
2023/11/17 00:36:51;;;;;;;26.70;18.60;;;;;;;4.11;83.64;99582.16;103474;1253;107555;-78
2023/11/17 00:39:21;;;;;;;31.70;18.80;;;;;;;4.08;83.69;99583.77;103298;1252;138447;-78
2023/11/17 00:41:48;;;;;;;28.60;17.20;;;;;;;4.07;83.89;99582.58;103455;1256;107541;-78
2023/11/17 00:44:16;;;;;;;28.50;17.90;;;;;;;4.09;83.77;99578.94;103277;1256;138854;-78
2023/11/17 00:46:42;;;;;;;26.90;17.70;;;;;;;4.08;83.80;99576.89;103388;1255;109349;-77
2023/11/17 00:49:09;;;;;;;27.20;18.40;;;;;;;4.11;83.60;99578.71;103233;1252;139294;-77
2023/11/17 00:51:36;;;;;;;29.00;18.10;;;;;;;4.14;83.69;99582.13;103583;1253;97082;-77
2023/11/17 00:54:04;;;;;;;28.30;17.80;;;;;;;4.14;83.27;99580.08;103348;1257;108652;-77
2023/11/17 00:56:31;;;;;;;29.40;18.50;;;;;;;4.12;83.32;99581.98;102816;1253;1002330;-76
2023/11/17 00:58:58;;;;;;;27.90;18.00;;;;;;;4.08;83.29;99576.36;103745;1253;109148;-77
2023/11/17 01:01:25;;;;;;;26.40;17.50;;;;;;;4.05;83.40;99574.02;103556;1254;138869;-78
2023/11/17 01:03:53;;;;;;;28.80;17.10;;;;;;;4.05;83.32;99570.40;103879;1254;96341;-78
2023/11/17 01:06:21;;;;;;;26.10;17.40;;;;;;;4.02;83.26;99568.39;104309;1256;107958;-77
2023/11/17 01:08:48;;;;;;;26.40;16.40;;;;;;;4.01;83.20;99570.66;103499;1253;1003162;-78
2023/11/17 01:11:14;;;;;;;24.60;16.80;;;;;;;4.01;83.23;99567.91;102821;1253;1002963;-76
2023/11/17 01:13:41;;;;;;;28.20;17.20;;;;;;;4.00;83.04;99576.34;103439;1254;140052;-78
2023/11/17 01:16:09;;;;;;;27.40;17.20;;;;;;;3.98;83.06;99575.35;103552;1254;96577;-78
2023/11/17 01:18:36;;;;;;;27.70;17.20;;;;;;;3.96;83.12;99575.38;103730;1256;108234;-77
2023/11/17 01:21:05;;;;;;;26.80;18.40;;;;;;;3.91;83.43;99570.45;103212;1257;138210;-78
2023/11/17 01:23:32;;;;;;;26.90;17.10;;;;;;;3.88;83.43;99566.21;103435;1252;109834;-79
2023/11/17 01:26:00;;;;;;;26.30;16.70;;;;;;;3.85;83.70;99565.40;104072;1254;138700;-79
2023/11/17 01:28:27;;;;;;;26.10;16.90;;;;;;;3.85;84.00;99560.77;103410;1253;96455;-79
2023/11/17 01:30:54;;;;;;;25.40;16.50;;;;;;;3.87;84.03;99560.89;103414;1257;107276;-78
2023/11/17 01:33:20;;;;;;;24.60;16.20;;;;;;;3.88;84.03;99562.24;102734;1253;1003296;-79
2023/11/17 01:35:48;;;;;;;25.40;15.40;;;;;;;3.90;84.28;99559.48;103685;1252;110119;-78
2023/11/17 01:38:15;;;;;;;21.50;15.80;;;;;;;3.93;84.30;99562.17;103728;1253;138017;-80
2023/11/17 01:40:43;;;;;;;26.70;17.00;;;;;;;3.95;84.26;99564.73;103701;1253;97019;-79
2023/11/17 01:43:11;;;;;;;24.20;16.30;;;;;;;3.95;84.34;99567.83;103330;1252;138214;-79
2023/11/17 01:45:39;;;;;;;24.70;16.60;;;;;;;3.92;84.57;99563.21;102979;1256;1003071;-78
2023/11/17 01:48:08;;;;;;;23.90;16.20;;;;;;;3.88;85.08;99560.53;103121;1252;1002796;-79
2023/11/17 01:50:38;;;;;;;22.30;15.50;;;;;;;3.84;85.35;99558.19;103656;1253;139143;-79
2023/11/17 01:53:07;;;;;;;23.10;15.00;;;;;;;3.78;85.54;99555.20;103427;1253;96647;-77
2023/11/17 01:55:34;;;;;;;23.10;14.20;;;;;;;3.71;85.47;99552.71;103577;1253;138128;-79
2023/11/17 01:58:03;;;;;;;21.20;14.40;;;;;;;3.67;85.88;99549.54;102667;1253;1003126;-79
2023/11/17 02:00:56;;;;;;;17.10;12.80;;;;;;;3.66;86.03;99546.95;103327;1253;110999;-77
2023/11/17 02:03:23;;;;;;;18.00;12.10;;;;;;;3.65;86.01;99544.05;103802;1254;108274;-78
2023/11/17 02:05:56;;;;;;;17.70;12.60;;;;;;;3.65;85.86;99543.71;103487;1256;96433;-77
2023/11/17 02:12:14;;;;;;;21.00;13.70;;;;;;;3.51;85.72;99551.13;103782;1253;96441;-78
2023/11/17 02:14:46;;;;;;;18.60;13.20;;;;;;;3.40;85.63;99542.02;104323;1253;138912;-78
2023/11/17 02:17:16;;;;;;;17.30;12.60;;;;;;;3.37;86.06;99546.35;103464;1251;108311;-78
2023/11/17 02:19:44;;;;;;;16.80;12.10;;;;;;;3.33;86.24;99543.48;102410;1253;1016391;-78
2023/11/17 02:22:16;;;;;;;15.40;11.50;;;;;;;3.32;86.41;99545.57;103204;1252;1002605;-77
2023/11/17 02:24:55;;;;;;;15.70;11.70;;;;;;;3.33;86.42;99546.73;103542;1256;96453;-77
2023/11/17 02:27:30;;;;;;;15.80;11.80;;;;;;;3.36;86.70;99549.10;103319;1253;138331;-77
2023/11/17 02:30:02;;;;;;;18.40;12.60;;;;;;;3.42;86.75;99549.21;103557;1253;108633;-76
2023/11/17 02:32:30;;;;;;;17.70;12.80;;;;;;;3.47;86.73;99547.92;103857;1253;137949;-79
2023/11/17 02:34:58;;;;;;;17.30;12.70;;;;;;;3.50;86.67;99550.10;103333;1257;108911;-78
2023/11/17 02:37:26;;;;;;;16.00;11.60;;;;;;;3.45;86.39;99550.71;102957;1256;1003439;-77
2023/11/17 02:39:55;;;;;;;15.40;10.80;;;;;;;3.38;86.12;99552.69;104265;1253;109701;-78
2023/11/17 02:42:24;;;;;;;14.10;10.80;;;;;;;3.32;86.27;99549.69;103407;1253;106750;-77
2023/11/17 02:44:51;;;;;;;14.20;10.90;;;;;;;3.30;86.21;99550.93;103428;1253;1002454;-78
2023/11/17 02:47:27;;;;;;;18.80;11.40;;;;;;;3.28;86.31;99553.17;104319;1254;107443;-78
2023/11/17 02:50:00;;;;;;;15.00;11.30;;;;;;;3.32;86.51;99552.78;103651;1253;137968;-79
2023/11/17 02:52:42;;;;;;;16.50;12.00;;;;;;;3.32;86.53;99554.15;103504;1253;109994;-79
2023/11/17 02:55:10;;;;;;;16.30;11.10;;;;;;;3.25;86.39;99549.45;103314;1253;138172;-76
2023/11/17 02:57:38;;;;;;;15.50;10.60;;;;;;;3.23;86.46;99547.75;103550;1253;96338;-78
2023/11/17 03:00:07;;;;;;;13.90;10.30;;;;;;;3.19;86.59;99545.05;104495;1253;108327;-78
2023/11/17 03:02:34;;;;;;;15.40;10.80;;;;;;;3.23;86.77;99549.46;104289;1253;138257;-78
2023/11/17 03:05:06;;;;;;;14.70;10.60;;;;;;;3.26;86.70;99548.40;104361;1256;109108;-78
2023/11/17 03:07:36;;;;;;;14.70;11.10;;;;;;;3.32;86.78;99552.26;103352;1253;138001;-77
2023/11/17 03:10:05;;;;;;;17.70;12.10;;;;;;;3.38;86.88;99549.08;103896;1253;96279;-78
2023/11/17 03:12:32;;;;;;;15.30;11.80;;;;;;;3.42;86.65;99551.96;103452;1252;107749;-77
2023/11/17 03:14:59;;;;;;;17.30;12.20;;;;;;;3.41;86.50;99552.15;102832;1253;1002848;-77
2023/11/17 03:17:26;;;;;;;15.00;11.80;;;;;;;3.40;86.52;99551.11;104328;1253;110812;-78
2023/11/17 03:19:53;;;;;;;16.10;10.80;;;;;;;3.39;86.33;99553.36;103113;1253;1003060;-77
2023/11/17 03:22:19;;;;;;;16.10;11.30;;;;;;;3.40;86.66;99551.11;103536;1253;96390;-77
2023/11/17 03:24:46;;;;;;;18.30;11.00;;;;;;;3.44;86.64;99550.39;103418;1256;107389;-76
2023/11/17 03:27:14;;;;;;;13.90;10.80;;;;;;;3.49;86.83;99546.70;103775;1252;138589;-77
2023/11/17 03:29:46;;;;;;;13.10;10.20;;;;;;;3.54;86.61;99546.60;104362;1253;112462;-77
2023/11/17 03:32:13;;;;;;;14.00;11.10;;;;;;;3.56;86.16;99545.55;103912;1253;137589;-76
2023/11/17 03:34:41;;;;;;;13.30;10.30;;;;;;;3.56;86.03;99540.58;104470;1253;94984;-76
2023/11/17 03:37:12;;;;;;;16.50;11.30;;;;;;;3.54;85.91;99538.53;103418;1257;137453;-75
2023/11/17 03:39:41;;;;;;;14.20;11.40;;;;;;;3.50;85.88;99536.36;103059;1253;1003004;-76
2023/11/17 03:42:10;;;;;;;14.00;11.00;;;;;;;3.45;85.73;99531.98;103951;1253;109093;-76
2023/11/17 03:44:36;;;;;;;15.20;10.50;;;;;;;3.41;85.88;99534.45;103447;1253;138645;-76
2023/11/17 03:47:06;;;;;;;14.80;10.10;;;;;;;3.36;85.65;99536.91;104129;1253;96099;-76
2023/11/17 03:49:34;;;;;;;16.20;9.50;;;;;;;3.32;85.87;99539.20;103437;1254;139404;-76
2023/11/17 03:52:02;;;;;;;11.70;9.10;;;;;;;3.33;86.05;99538.52;103095;1253;1003033;-77
2023/11/17 03:54:29;;;;;;;12.70;9.40;;;;;;;3.34;86.06;99539.00;103911;1253;110005;-77
2023/11/17 03:56:57;;;;;;;12.10;9.40;;;;;;;3.37;85.54;99533.45;103474;1253;139447;-76
2023/11/17 03:59:24;;;;;;;12.20;9.40;;;;;;;3.35;85.65;99533.83;104230;1253;96689;-77
2023/11/17 04:01:52;;;;;;;13.80;10.10;;;;;;;3.38;85.60;99533.43;103777;1253;137154;-77
2023/11/17 04:04:19;;;;;;;14.60;10.60;;;;;;;3.38;85.52;99529.33;102845;1254;1003137;-77
2023/11/17 04:06:49;;;;;;;12.20;9.10;;;;;;;3.37;85.55;99530.20;103739;1253;108232;-77
2023/11/17 04:09:20;;;;;;;15.50;9.10;;;;;;;3.36;85.47;99530.38;104258;1253;137995;-78
2023/11/17 04:11:48;;;;;;;12.10;8.80;;;;;;;3.34;85.25;99526.29;103505;1253;96978;-78
2023/11/17 04:14:15;;;;;;;11.90;8.90;;;;;;;3.32;85.43;99528.21;103753;1253;137311;-78
2023/11/17 04:16:42;;;;;;;12.60;9.40;;;;;;;3.33;85.26;99529.58;103847;1253;96553;-76
2023/11/17 04:19:09;;;;;;;12.80;9.40;;;;;;;3.35;85.47;99526.79;103378;1253;137501;-77
2023/11/17 04:21:37;;;;;;;13.00;9.60;;;;;;;3.36;85.26;99525.40;103361;1253;108058;-78
2023/11/17 04:24:04;;;;;;;14.40;9.60;;;;;;;3.35;85.11;99525.42;103473;1252;96455;-77
2023/11/17 04:26:31;;;;;;;12.00;9.50;;;;;;;3.32;85.07;99529.25;103340;1253;137921;-78
2023/11/17 04:28:58;;;;;;;13.10;9.60;;;;;;;3.31;85.34;99528.56;102734;1253;1003473;-77
2023/11/17 04:31:24;;;;;;;11.70;8.80;;;;;;;3.31;85.36;99530.10;103340;1253;138465;-77
2023/11/17 04:33:54;;;;;;;11.50;8.30;;;;;;;3.29;85.24;99526.38;103406;1253;108418;-77
2023/11/17 04:36:23;;;;;;;10.90;8.30;;;;;;;3.27;85.14;99523.65;102746;1253;1002612;-77
2023/11/17 04:38:50;;;;;;;14.00;8.80;;;;;;;3.27;85.31;99521.77;103274;1253;138653;-77
2023/11/17 04:41:19;;;;;;;14.10;8.70;;;;;;;3.29;85.47;99521.73;103462;1253;96368;-77
2023/11/17 04:43:46;;;;;;;10.80;8.70;;;;;;;3.31;85.42;99522.55;103061;1253;1005272;-78
2023/11/17 04:46:21;;;;;;;13.50;9.70;;;;;;;3.31;85.02;99525.47;103394;1253;107527;-78
2023/11/17 04:48:49;;;;;;;11.40;9.10;;;;;;;3.30;85.12;99531.52;102719;1253;1003265;-78
2023/11/17 04:51:16;;;;;;;10.60;8.30;;;;;;;3.27;85.15;99528.13;103313;1256;139343;-77
2023/11/17 04:53:43;;;;;;;11.40;8.50;;;;;;;3.24;85.24;99532.29;103420;1253;98357;-77
2023/11/17 04:56:11;;;;;;;11.00;8.40;;;;;;;3.28;85.37;99534.97;102599;1253;1003390;-76
2023/11/17 04:58:40;;;;;;;12.10;8.50;;;;;;;3.28;85.15;99536.88;103822;1252;107008;-78
2023/11/17 05:01:07;;;;;;;13.20;9.30;;;;;;;3.26;85.03;99535.69;103318;1253;137991;-77
2023/11/17 05:03:34;;;;;;;12.50;9.90;;;;;;;3.27;85.31;99542.55;103403;1253;109382;-78
2023/11/17 05:06:05;;;;;;;10.00;8.50;;;;;;;3.22;84.99;99542.09;103460;1253;97810;-78
2023/11/17 05:08:32;;;;;;;12.90;8.20;;;;;;;3.18;85.01;99544.20;103413;1253;137983;-78
2023/11/17 05:11:00;;;;;;;11.20;7.80;;;;;;;3.18;85.00;99543.52;103364;1253;107449;-77
2023/11/17 05:13:26;;;;;;;11.10;8.20;;;;;;;3.18;85.07;99545.74;103419;1253;138106;-78
2023/11/17 05:15:54;;;;;;;12.80;8.70;;;;;;;3.21;85.37;99546.04;103393;1256;108467;-78
2023/11/17 05:18:21;;;;;;;11.50;8.90;;;;;;;3.22;85.19;99545.00;103516;1253;97842;-78
2023/11/17 05:20:48;;;;;;;12.70;9.40;;;;;;;3.22;85.29;99543.46;103393;1253;137461;-78
2023/11/17 05:23:16;;;;;;;11.90;8.70;;;;;;;3.17;85.02;99542.34;102660;1256;1003127;-77
2023/11/17 05:25:43;;;;;;;9.60;7.90;;;;;;;3.13;85.07;99543.24;103346;1253;138716;-77
2023/11/17 05:28:10;;;;;;;10.70;7.60;;;;;;;3.10;84.96;99542.44;103438;1253;107451;-77
2023/11/17 05:30:37;;;;;;;13.70;7.50;;;;;;;3.07;85.13;99539.21;103471;1253;97896;-78
2023/11/17 05:33:05;;;;;;;10.00;7.60;;;;;;;3.07;85.54;99539.05;103287;1253;139888;-77
2023/11/17 05:35:32;;;;;;;11.00;7.40;;;;;;;3.11;85.27;99535.73;103980;1253;106839;-78
2023/11/17 05:37:59;;;;;;;11.30;7.90;;;;;;;3.12;85.27;99537.60;103393;1253;137712;-73
2023/11/17 05:40:26;;;;;;;10.00;8.30;;;;;;;3.15;85.47;99536.36;103483;1253;107673;-77
2023/11/17 05:42:53;;;;;;;12.90;10.10;;;;;;;3.14;84.95;99538.60;103427;1253;97845;-77
2023/11/17 05:45:20;;;;;;;11.50;9.20;;;;;;;3.10;85.15;99536.09;103288;1253;138639;-76
2023/11/17 05:47:47;;;;;;;11.20;8.70;;;;;;;3.08;85.35;99537.31;103372;1256;108305;-78
2023/11/17 05:50:14;;;;;;;9.40;7.90;;;;;;;3.04;85.52;99540.94;102585;1253;1003072;-78
2023/11/17 05:52:43;;;;;;;11.20;8.40;;;;;;;3.03;85.51;99539.08;103416;1256;108569;-78
2023/11/17 05:55:16;;;;;;;9.30;7.40;;;;;;;3.02;85.51;99537.38;103319;1253;138506;-75
2023/11/17 05:57:44;;;;;;;10.50;8.40;;;;;;;3.02;85.44;99539.59;103473;1253;112182;-75
2023/11/17 06:00:14;;;;;;;10.90;8.60;;;;;;;3.01;85.41;99540.64;103391;1253;106828;-77
2023/11/17 06:02:41;;;;;;;11.10;8.30;;;;;;;3.00;85.50;99543.23;103541;1253;138669;-77
2023/11/17 06:05:09;;;;;;;12.00;8.90;;;;;;;3.00;85.58;99544.27;103516;1256;108179;-77
2023/11/17 06:07:38;;;;;;;12.10;8.80;;;;;;;2.95;85.70;99545.54;103399;1253;138203;-77
2023/11/17 06:10:05;;;;;;;10.40;8.30;;;;;;;2.93;85.76;99551.05;103506;1253;111247;-77
2023/11/17 06:12:33;;;;;;;10.20;7.40;;;;;;;2.95;85.86;99556.53;103908;1256;109550;-77
2023/11/17 06:15:01;;;;;;;13.00;7.70;;;;;;;2.98;85.96;99553.91;103246;1253;138659;-75
2023/11/17 06:17:27;;;;;;;11.40;8.20;;;;;;;3.02;85.92;99557.64;103466;1253;107614;-76
2023/11/17 06:19:54;;;;;;;12.90;9.30;;;;;;;3.05;85.80;99560.35;103360;1253;137748;-75
2023/11/17 06:22:22;;;;;;;10.50;8.40;;;;;;;3.07;85.75;99565.16;103406;1253;111527;-76
2023/11/17 06:24:49;;;;;;;10.70;8.60;;;;;;;3.10;85.70;99557.90;103415;1256;107524;-79
2023/11/17 06:27:16;;;;;;;11.60;8.20;;;;;;;3.11;85.90;99555.99;103333;1256;137429;-75
2023/11/17 06:29:43;;;;;;;10.80;7.50;;;;;;;3.10;85.57;99560.47;103455;1252;107307;-76
2023/11/17 06:32:10;;;;;;;11.00;7.90;;;;;;;3.10;85.73;99561.34;103295;1253;138212;-76
2023/11/17 06:34:37;;;;;;;10.50;7.50;;;;;;;3.09;85.61;99560.31;103425;1256;110672;-76
2023/11/17 06:37:05;;;;;;;12.90;7.90;;;;;;;3.13;85.79;99561.80;103310;1253;138174;-74
2023/11/17 06:39:31;;;;;;;11.60;8.00;;;;;;;3.17;85.90;99559.69;103541;1253;98268;-80
2023/11/17 06:41:58;;;;;;;14.60;10.20;;;;;;;3.19;85.95;99563.79;103420;1253;107735;-81
2023/11/17 06:44:26;;;;;;;12.70;8.60;;;;;;;3.19;85.91;99564.46;103371;1253;137681;-81
2023/11/17 06:46:53;;;;;;;11.80;7.90;;;;;;;3.15;85.83;99566.92;102674;1253;1003211;-80
2023/11/17 06:49:22;;;;;;;11.50;7.60;;;;;;;3.10;85.68;99569.73;101803;1253;1003795;-80
2023/11/17 06:51:51;;;;;;;11.40;8.20;;;;;;;3.07;86.02;99575.12;103944;1253;96229;-82
2023/11/17 06:54:18;;;;;;;12.20;7.80;;;;;;;3.05;86.28;99575.29;103161;1253;1002410;-81
2023/11/17 06:56:46;;;;;;;12.60;9.50;;;;;;;3.03;86.31;99574.96;102702;1256;1003692;-80
2023/11/17 06:59:15;;;;;;;14.50;10.30;;;;;;;3.03;86.60;99575.65;104228;1253;111369;-80
2023/11/17 07:01:43;;;;;;;11.50;9.50;;;;;;;3.04;86.72;99574.27;103307;1256;138122;-81
2023/11/17 07:04:12;;;;;;;12.70;8.70;;;;;;;3.00;86.82;99575.34;103285;1253;98112;-80
2023/11/17 07:06:40;;;;;;;11.50;8.50;;;;;;;2.95;86.72;99578.69;102749;1253;1002943;-80
2023/11/17 07:09:15;;;;;;;16.00;8.60;;;;;;;2.88;86.69;99572.42;103728;1253;138626;-73
2023/11/17 07:11:42;;;;;;;11.50;8.60;;;;;;;2.88;87.19;99574.83;104333;1253;110592;-74
2023/11/17 07:14:11;;;;;;;13.30;8.60;;;;;;;2.86;87.01;99577.05;103298;1253;138299;-74
2023/11/17 07:16:38;;;;;;;13.60;9.40;;;;;;;2.90;87.24;99584.77;103558;1253;98305;-74
2023/11/17 07:19:11;;;;;;;12.20;9.40;;;;;;;2.92;87.46;99582.49;103976;1253;138142;-74
2023/11/17 07:21:39;;;;;;;14.50;10.20;;;;;;;2.99;87.79;99583.27;103467;1253;98254;-75
2023/11/17 07:24:07;;;;;;;12.80;9.30;;;;;;;2.99;87.63;99580.86;104323;1253;112528;-76
2023/11/17 07:26:34;;;;;;;14.00;9.00;;;;;;;3.02;87.65;99589.58;102737;1253;1003514;-74
2023/11/17 07:29:01;;;;;;;11.10;8.40;;;;;;;3.02;87.52;99589.91;103453;1252;98303;-74
2023/11/17 07:31:29;;;;;;;11.80;8.80;;;;;;;3.01;87.44;99589.41;103241;1256;139373;-74
2023/11/17 07:33:56;;;;;;;14.30;9.40;;;;;;;3.07;87.54;99590.75;102604;1253;1003194;-73
2023/11/17 07:36:23;;;;;;;13.00;9.40;;;;;;;3.07;87.44;99591.26;102698;1253;1003462;-73
2023/11/17 07:38:52;;;;;;;13.90;9.60;;;;;;;3.07;87.20;99592.80;103305;1252;139538;-73
2023/11/17 07:41:20;;;;;;;14.30;10.00;;;;;;;3.04;87.22;99593.67;103425;1253;97747;-74
2023/11/17 07:43:47;;;;;;;13.60;8.90;;;;;;;3.03;87.07;99600.38;103307;1256;138896;-74
2023/11/17 07:46:14;;;;;;;14.20;9.30;;;;;;;2.98;87.01;99596.33;103451;1253;97812;-71
2023/11/17 07:48:44;;;;;;;13.00;8.90;;;;;;;2.97;87.30;99597.02;103333;1256;110718;-71
2023/11/17 07:51:22;;;;;;;12.10;9.60;;;;;;;3.00;87.70;99599.21;104168;1255;138172;-73
2023/11/17 07:53:51;;;;;;;13.70;9.90;;;;;;;3.08;87.73;99601.55;103478;1256;97791;-74
2023/11/17 07:56:19;;;;;;;14.70;9.70;;;;;;;3.13;87.77;99601.48;103329;1252;137491;-74
2023/11/17 07:58:48;;;;;;;14.40;10.60;;;;;;;3.16;87.89;99606.77;103325;1256;97689;-74
2023/11/17 08:01:17;;;;;;;14.10;9.70;;;;;;;3.14;87.56;99607.14;103331;1253;137649;-74
2023/11/17 08:03:45;;;;;;;14.60;9.40;;;;;;;3.11;87.62;99609.24;103330;1253;108185;-74
2023/11/17 08:06:13;;;;;;;13.30;9.80;;;;;;;3.11;87.69;99611.48;103399;1253;97811;-76
2023/11/17 08:08:41;;;;;;;14.60;9.10;;;;;;;3.10;87.57;99611.64;103201;1253;139455;-74
2023/11/17 08:11:09;;;;;;;15.30;10.00;;;;;;;3.13;87.46;99617.11;103438;1253;97788;-74
2023/11/17 08:13:37;;;;;;;13.40;10.20;;;;;;;3.14;87.53;99620.88;103603;1253;137947;-74
2023/11/17 08:16:05;;;;;;;16.60;10.90;;;;;;;3.13;87.28;99624.84;103460;1253;107297;-74
2023/11/17 08:18:33;;;;;;;15.30;10.90;;;;;;;3.13;87.45;99622.77;103749;1253;97718;-72
2023/11/17 08:21:00;;;;;;;15.70;10.10;;;;;;;3.11;87.63;99622.81;102667;1256;1002991;-71
2023/11/17 08:23:27;;;;;;;13.20;10.10;;;;;;;3.13;87.69;99621.75;102710;1253;1002678;-74
2023/11/17 08:25:55;;;;;;;14.00;10.20;;;;;;;3.13;87.69;99626.56;102562;1253;1003507;-72
2023/11/17 08:28:22;;;;;;;15.50;9.60;;;;;;;3.15;88.00;99627.21;103403;1253;108224;-72
2023/11/17 08:30:49;;;;;;;14.70;10.70;;;;;;;3.19;87.86;99631.46;103468;1253;97810;-72
2023/11/17 08:33:19;;;;;;;14.20;10.20;;;;;;;3.20;87.57;99631.79;103316;1253;137541;-72
2023/11/17 08:35:46;;;;;;;15.00;11.00;;;;;;;3.21;87.65;99633.15;103418;1253;97730;-71
2023/11/17 08:38:13;;;;;;;13.60;10.30;;;;;;;3.21;87.57;99632.80;103684;1253;137515;-72
2023/11/17 08:40:40;;;;;;;16.70;10.70;;;;;;;3.20;87.50;99634.19;103448;1253;107907;-72
2023/11/17 08:43:07;;;;;;;11.20;8.30;;;;;;;3.17;87.44;99639.91;103315;1253;139580;-74
2023/11/17 08:45:34;;;;;;;10.40;7.50;;;;;;;3.06;87.03;99641.23;103450;1256;107973;-73
2023/11/17 08:48:02;;;;;;;11.20;8.10;;;;;;;2.95;86.76;99645.65;103458;1252;97801;-71
2023/11/17 08:50:30;;;;;;;10.40;7.60;;;;;;;2.90;87.17;99649.84;103391;1253;138310;-71
2023/11/17 08:52:58;;;;;;;10.60;8.30;;;;;;;2.85;87.40;99648.50;103406;1253;107243;-72
2023/11/17 08:55:27;;;;;;;12.10;8.10;;;;;;;2.83;87.54;99650.41;103339;1253;138573;-71
2023/11/17 08:57:55;;;;;;;13.00;8.40;;;;;;;2.80;87.50;99652.17;103403;1253;107101;-71
2023/11/17 09:00:25;;;;;;;11.90;7.80;;;;;;;2.71;87.42;99653.98;103464;1253;97796;-72
2023/11/17 09:02:53;;;;;;;10.00;7.10;;;;;;;2.66;87.75;99658.98;103361;1253;138927;-72
2023/11/17 09:05:22;;;;;;;10.90;6.90;;;;;;;2.63;87.83;99659.55;102720;1253;1015754;-72
2023/11/17 09:07:50;;;;;;;10.00;6.60;;;;;;;2.65;88.15;99661.92;102629;1253;1003613;-72
2023/11/17 09:10:19;;;;;;;8.60;6.80;;;;;;;2.68;88.02;99661.72;103486;1256;108683;-69
2023/11/17 09:12:47;;;;;;;10.50;7.10;;;;;;;2.68;88.16;99661.54;103947;1253;97813;-71
2023/11/17 09:15:16;;;;;;;9.70;7.60;;;;;;;2.67;87.86;99660.01;103598;1253;137136;-70
2023/11/17 09:17:47;;;;;;;9.20;6.50;;;;;;;2.65;88.26;99661.41;103403;1252;108571;-69
2023/11/17 09:20:17;;;;;;;8.20;6.10;;;;;;;2.62;87.99;99659.04;103436;1256;138302;-71
2023/11/17 09:22:45;;;;;;;9.70;6.10;;;;;;;2.59;88.19;99657.52;103450;1256;108528;-70
2023/11/17 09:25:14;;;;;;;9.00;6.50;;;;;;;2.56;88.38;99653.77;103415;1253;138104;-69
2023/11/17 09:27:41;;;;;;;9.10;6.40;;;;;;;2.56;88.43;99658.42;103458;1253;110762;-69
2023/11/17 09:30:14;;;;;;;10.20;6.50;;;;;;;2.56;88.48;99655.84;103376;1254;106946;-68
2023/11/17 09:32:43;;;;;;;9.10;6.90;;;;;;;2.57;88.75;99661.83;103504;1253;138428;-76
2023/11/17 09:35:13;;;;;;;10.80;6.40;;;;;;;2.60;88.84;99663.69;103832;1253;106896;-70
2023/11/17 09:37:40;;;;;;;9.40;7.30;;;;;;;2.65;88.56;99659.86;103637;1253;138271;-70
2023/11/17 09:40:11;;;;;;;9.60;7.40;;;;;;;2.65;88.64;99653.16;103445;1253;111407;-70
2023/11/17 09:42:39;;;;;;;9.20;7.30;;;;;;;2.67;88.42;99659.83;103404;1253;106327;-70
2023/11/17 09:45:08;;;;;;;10.10;8.10;;;;;;;2.63;88.33;99651.13;103308;1256;137340;-69
2023/11/17 09:47:36;;;;;;;9.80;7.30;;;;;;;2.61;88.66;99651.84;103464;1252;108838;-69
2023/11/17 09:50:09;;;;;;;9.80;6.80;;;;;;;2.62;88.63;99652.17;103338;1258;138032;-70
2023/11/17 09:52:38;;;;;;;7.50;6.20;;;;;;;2.63;88.51;99655.42;103541;1253;112297;-69
2023/11/17 09:55:07;;;;;;;8.80;6.50;;;;;;;2.62;88.38;99655.94;103391;1256;138151;-71
2023/11/17 09:57:35;;;;;;;7.20;6.30;;;;;;;2.63;88.27;99653.36;102866;1256;1003104;-71
2023/11/17 10:00:04;;;;;;;11.00;7.20;;;;;;;2.66;88.46;99656.06;103343;1253;107606;-70
2023/11/17 10:02:32;;;;;;;10.10;7.50;;;;;;;2.64;88.28;99653.17;102565;1253;1003069;-70
2023/11/17 10:05:00;;;;;;;8.10;6.80;;;;;;;2.62;88.33;99655.93;102643;1253;1002920;-71
2023/11/17 10:07:28;;;;;;;10.10;7.20;;;;;;;2.62;88.54;99655.25;103346;1256;140450;-71
2023/11/17 10:09:57;;;;;;;8.10;6.30;;;;;;;2.63;88.66;99657.83;103447;1253;98283;-70
2023/11/17 10:12:27;;;;;;;8.40;5.90;;;;;;;2.63;88.47;99660.91;103755;1253;107631;-71
2023/11/17 10:14:55;;;;;;;9.20;6.90;;;;;;;2.64;88.51;99662.79;103279;1253;138167;-70
2023/11/17 10:17:23;;;;;;;9.30;7.10;;;;;;;2.67;88.39;99665.49;102637;1253;1002661;-71
2023/11/17 10:19:51;;;;;;;9.70;8.30;;;;;;;2.69;88.45;99667.02;101753;1253;1003186;-71
2023/11/17 10:22:18;;;;;;;10.30;7.70;;;;;;;2.68;88.41;99667.72;103393;1253;97927;-70
2023/11/17 10:24:46;;;;;;;11.00;7.30;;;;;;;2.70;88.53;99665.67;103361;1253;107400;-71
2023/11/17 10:27:17;;;;;;;9.00;7.10;;;;;;;2.75;88.81;99664.41;103574;1253;138058;-72
2023/11/17 10:29:49;;;;;;;9.30;6.90;;;;;;;2.80;88.80;99665.55;103458;1256;112408;-70
2023/11/17 10:32:20;;;;;;;11.00;7.60;;;;;;;2.89;88.79;99666.33;103461;1252;139001;-73
2023/11/17 10:35:16;;;;;;;9.80;7.60;;;;;;;2.94;88.46;99662.84;104072;1253;98132;-71
2023/11/17 10:37:44;;;;;;;10.50;8.40;;;;;;;2.97;88.15;99662.11;103658;1253;137119;-75
2023/11/17 10:40:23;;;;;;;9.80;7.90;;;;;;;2.96;88.08;99662.47;103431;1253;97932;-74
2023/11/17 10:43:04;;;;;;;9.30;7.60;;;;;;;2.96;87.95;99666.59;103378;1254;112244;-73
2023/11/17 10:45:32;;;;;;;12.40;8.00;;;;;;;2.95;88.04;99665.23;103383;1256;108072;-72
2023/11/17 10:48:00;;;;;;;8.20;6.20;;;;;;;2.95;87.92;99664.20;103229;1253;97783;-72
2023/11/17 10:50:28;;;;;;;7.70;6.20;;;;;;;2.93;87.66;99665.95;103293;1253;138088;-71
2023/11/17 10:52:56;;;;;;;8.40;6.30;;;;;;;2.93;87.76;99664.40;103897;1253;97794;-71
2023/11/17 10:55:35;;;;;;;10.60;8.40;;;;;;;2.97;87.92;99664.69;103343;1253;137494;-70
2023/11/17 10:58:08;;;;;;;9.30;7.70;;;;;;;3.00;87.72;99668.60;103381;1253;108180;-69
2023/11/17 11:00:38;;;;;;;8.10;7.00;;;;;;;3.01;88.15;99670.81;102714;1253;1003715;-70
2023/11/17 11:03:06;;;;;;;11.30;6.50;;;;;;;3.00;87.77;99671.34;103372;1253;138523;-71
2023/11/17 11:05:34;;;;;;;8.10;6.60;;;;;;;3.01;87.71;99672.02;102693;1253;1002967;-71
2023/11/17 11:08:06;;;;;;;8.00;6.60;;;;;;;3.01;87.83;99678.20;103308;1256;139476;-72
2023/11/17 11:10:34;;;;;;;8.00;6.50;;;;;;;3.01;87.47;99676.83;102688;1253;1002667;-72
2023/11/17 11:13:03;;;;;;;8.20;6.90;;;;;;;3.01;87.48;99681.64;103459;1253;97242;-72
2023/11/17 11:15:31;;;;;;;9.40;7.50;;;;;;;3.02;87.52;99681.80;102724;1256;1003994;-72
2023/11/17 11:18:03;;;;;;;8.70;6.80;;;;;;;3.04;87.93;99682.81;103365;1253;97801;-70
2023/11/17 11:20:32;;;;;;;8.30;6.20;;;;;;;3.07;87.64;99683.84;103332;1253;137825;-70
2023/11/17 11:23:01;;;;;;;7.50;6.10;;;;;;;3.08;87.59;99683.31;103441;1256;108162;-70
2023/11/17 11:25:28;;;;;;;9.00;6.70;;;;;;;3.06;87.43;99683.33;103384;1254;138642;-71